sensor_id;sensor_type;location;lat;lon;timestamp;P1;durP1;ratioP1;P2;durP2;ratioP2
16775;SDS011;8505;49.456;8.164;2023-02-28T00:01:05;3.15;;;1.70;;
16775;SDS011;8505;49.456;8.164;2023-02-28T00:03:34;3.20;;;1.80;;
16775;SDS011;8505;49.456;8.164;2023-02-28T00:06:02;3.75;;;1.90;;
16775;SDS011;8505;49.456;8.164;2023-02-28T00:08:31;4.00;;;1.70;;
16775;SDS011;8505;49.456;8.164;2023-02-28T00:11:00;4.07;;;1.70;;
16775;SDS011;8505;49.456;8.164;2023-02-28T00:13:28;3.90;;;1.70;;
16775;SDS011;8505;49.456;8.164;2023-02-28T00:16:00;3.65;;;1.70;;
16775;SDS011;8505;49.456;8.164;2023-02-28T00:18:28;3.55;;;1.55;;
16775;SDS011;8505;49.456;8.164;2023-02-28T00:20:58;3.80;;;1.70;;
16775;SDS011;8505;49.456;8.164;2023-02-28T00:23:26;3.50;;;1.85;;
16775;SDS011;8505;49.456;8.164;2023-02-28T00:25:54;4.43;;;1.75;;
16775;SDS011;8505;49.456;8.164;2023-02-28T00:28:22;2.97;;;1.77;;
16775;SDS011;8505;49.456;8.164;2023-02-28T00:30:50;3.63;;;1.92;;
16775;SDS011;8505;49.456;8.164;2023-02-28T00:33:17;4.32;;;1.90;;
16775;SDS011;8505;49.456;8.164;2023-02-28T00:35:45;3.67;;;2.00;;
16775;SDS011;8505;49.456;8.164;2023-02-28T00:38:16;4.03;;;2.08;;
16775;SDS011;8505;49.456;8.164;2023-02-28T00:40:43;4.07;;;2.00;;
16775;SDS011;8505;49.456;8.164;2023-02-28T00:43:11;4.05;;;2.20;;
16775;SDS011;8505;49.456;8.164;2023-02-28T00:45:39;5.03;;;1.90;;
16775;SDS011;8505;49.456;8.164;2023-02-28T00:48:06;3.33;;;1.88;;
16775;SDS011;8505;49.456;8.164;2023-02-28T00:50:34;5.50;;;2.15;;
16775;SDS011;8505;49.456;8.164;2023-02-28T00:53:02;2.60;;;1.70;;
16775;SDS011;8505;49.456;8.164;2023-02-28T00:55:30;3.67;;;2.03;;
16775;SDS011;8505;49.456;8.164;2023-02-28T00:57:58;3.95;;;1.95;;
16775;SDS011;8505;49.456;8.164;2023-02-28T01:00:26;5.00;;;2.13;;
16775;SDS011;8505;49.456;8.164;2023-02-28T01:02:53;4.95;;;2.15;;
16775;SDS011;8505;49.456;8.164;2023-02-28T01:05:21;3.22;;;1.90;;
16775;SDS011;8505;49.456;8.164;2023-02-28T01:07:49;4.10;;;2.10;;
16775;SDS011;8505;49.456;8.164;2023-02-28T01:10:16;3.60;;;2.10;;
16775;SDS011;8505;49.456;8.164;2023-02-28T01:12:45;3.63;;;2.05;;
16775;SDS011;8505;49.456;8.164;2023-02-28T01:15:13;3.70;;;1.92;;
16775;SDS011;8505;49.456;8.164;2023-02-28T01:17:41;5.50;;;2.38;;
16775;SDS011;8505;49.456;8.164;2023-02-28T01:20:09;2.90;;;2.00;;
16775;SDS011;8505;49.456;8.164;2023-02-28T01:22:37;3.35;;;2.15;;
16775;SDS011;8505;49.456;8.164;2023-02-28T01:25:05;4.28;;;2.10;;
16775;SDS011;8505;49.456;8.164;2023-02-28T01:27:34;3.65;;;2.28;;
16775;SDS011;8505;49.456;8.164;2023-02-28T01:30:03;4.53;;;2.15;;
16775;SDS011;8505;49.456;8.164;2023-02-28T01:32:32;4.50;;;2.40;;
16775;SDS011;8505;49.456;8.164;2023-02-28T01:35:00;4.03;;;2.40;;
16775;SDS011;8505;49.456;8.164;2023-02-28T01:37:27;5.10;;;2.43;;
16775;SDS011;8505;49.456;8.164;2023-02-28T01:39:55;4.15;;;2.40;;
16775;SDS011;8505;49.456;8.164;2023-02-28T01:42:23;4.05;;;2.20;;
16775;SDS011;8505;49.456;8.164;2023-02-28T01:44:58;3.35;;;2.17;;
16775;SDS011;8505;49.456;8.164;2023-02-28T01:47:34;4.00;;;2.10;;
16775;SDS011;8505;49.456;8.164;2023-02-28T01:50:04;3.40;;;2.10;;
16775;SDS011;8505;49.456;8.164;2023-02-28T01:52:34;3.75;;;2.25;;
16775;SDS011;8505;49.456;8.164;2023-02-28T01:55:04;5.45;;;2.33;;
16775;SDS011;8505;49.456;8.164;2023-02-28T01:57:34;3.53;;;2.30;;
16775;SDS011;8505;49.456;8.164;2023-02-28T02:00:08;5.80;;;2.50;;
16775;SDS011;8505;49.456;8.164;2023-02-28T02:02:39;4.00;;;2.30;;
16775;SDS011;8505;49.456;8.164;2023-02-28T02:05:10;4.15;;;2.42;;
16775;SDS011;8505;49.456;8.164;2023-02-28T02:07:39;5.40;;;2.80;;
16775;SDS011;8505;49.456;8.164;2023-02-28T02:10:11;5.70;;;2.58;;
16775;SDS011;8505;49.456;8.164;2023-02-28T02:12:47;3.95;;;2.50;;
16775;SDS011;8505;49.456;8.164;2023-02-28T02:15:30;3.65;;;2.50;;
16775;SDS011;8505;49.456;8.164;2023-02-28T02:18:02;4.57;;;2.72;;
16775;SDS011;8505;49.456;8.164;2023-02-28T02:23:51;5.47;;;2.85;;
16775;SDS011;8505;49.456;8.164;2023-02-28T02:26:52;5.47;;;2.60;;
16775;SDS011;8505;49.456;8.164;2023-02-28T02:29:35;4.82;;;3.00;;
16775;SDS011;8505;49.456;8.164;2023-02-28T02:32:18;5.50;;;2.88;;
16775;SDS011;8505;49.456;8.164;2023-02-28T02:34:59;4.80;;;2.90;;
16775;SDS011;8505;49.456;8.164;2023-02-28T02:37:33;4.55;;;2.50;;
16775;SDS011;8505;49.456;8.164;2023-02-28T02:40:09;5.55;;;2.80;;
16775;SDS011;8505;49.456;8.164;2023-02-28T02:42:41;5.47;;;3.10;;
16775;SDS011;8505;49.456;8.164;2023-02-28T02:45:17;4.77;;;2.70;;
16775;SDS011;8505;49.456;8.164;2023-02-28T02:47:51;3.78;;;2.50;;
16775;SDS011;8505;49.456;8.164;2023-02-28T02:50:22;5.20;;;3.05;;
16775;SDS011;8505;49.456;8.164;2023-02-28T02:52:55;4.65;;;2.97;;
16775;SDS011;8505;49.456;8.164;2023-02-28T02:55:26;6.28;;;3.08;;
16775;SDS011;8505;49.456;8.164;2023-02-28T02:57:56;5.33;;;2.83;;
16775;SDS011;8505;49.456;8.164;2023-02-28T03:00:29;5.25;;;2.88;;
16775;SDS011;8505;49.456;8.164;2023-02-28T03:03:01;5.07;;;2.40;;
16775;SDS011;8505;49.456;8.164;2023-02-28T03:05:32;5.20;;;2.80;;
16775;SDS011;8505;49.456;8.164;2023-02-28T03:08:06;4.57;;;2.70;;
16775;SDS011;8505;49.456;8.164;2023-02-28T03:10:36;4.40;;;2.60;;
16775;SDS011;8505;49.456;8.164;2023-02-28T03:13:11;4.65;;;2.80;;
16775;SDS011;8505;49.456;8.164;2023-02-28T03:15:55;3.70;;;2.67;;
16775;SDS011;8505;49.456;8.164;2023-02-28T03:18:34;6.90;;;3.40;;
16775;SDS011;8505;49.456;8.164;2023-02-28T03:21:11;4.18;;;2.70;;
16775;SDS011;8505;49.456;8.164;2023-02-28T03:23:48;6.10;;;3.30;;
16775;SDS011;8505;49.456;8.164;2023-02-28T03:26:23;6.05;;;3.00;;
16775;SDS011;8505;49.456;8.164;2023-02-28T03:28:56;5.05;;;3.08;;
16775;SDS011;8505;49.456;8.164;2023-02-28T03:31:33;4.45;;;2.80;;
16775;SDS011;8505;49.456;8.164;2023-02-28T03:34:06;5.53;;;3.00;;
16775;SDS011;8505;49.456;8.164;2023-02-28T03:36:39;6.63;;;3.47;;
16775;SDS011;8505;49.456;8.164;2023-02-28T03:39:12;6.88;;;3.72;;
16775;SDS011;8505;49.456;8.164;2023-02-28T03:41:44;5.88;;;3.20;;
16775;SDS011;8505;49.456;8.164;2023-02-28T03:44:16;6.07;;;3.47;;
16775;SDS011;8505;49.456;8.164;2023-02-28T03:46:50;5.22;;;3.30;;
16775;SDS011;8505;49.456;8.164;2023-02-28T03:49:22;5.57;;;3.00;;
16775;SDS011;8505;49.456;8.164;2023-02-28T03:51:55;4.38;;;2.67;;
16775;SDS011;8505;49.456;8.164;2023-02-28T03:54:29;7.60;;;2.83;;
16775;SDS011;8505;49.456;8.164;2023-02-28T03:56:59;5.35;;;2.80;;
16775;SDS011;8505;49.456;8.164;2023-02-28T03:59:34;5.65;;;2.80;;
16775;SDS011;8505;49.456;8.164;2023-02-28T04:02:04;3.80;;;2.60;;
16775;SDS011;8505;49.456;8.164;2023-02-28T04:04:32;5.28;;;3.15;;
16775;SDS011;8505;49.456;8.164;2023-02-28T04:07:04;4.63;;;2.90;;
16775;SDS011;8505;49.456;8.164;2023-02-28T04:09:34;6.30;;;2.87;;
16775;SDS011;8505;49.456;8.164;2023-02-28T04:12:02;4.50;;;2.80;;
16775;SDS011;8505;49.456;8.164;2023-02-28T04:14:30;4.10;;;2.70;;
16775;SDS011;8505;49.456;8.164;2023-02-28T04:16:58;4.78;;;2.72;;
16775;SDS011;8505;49.456;8.164;2023-02-28T04:19:26;3.85;;;2.80;;
16775;SDS011;8505;49.456;8.164;2023-02-28T04:21:54;4.47;;;2.85;;
16775;SDS011;8505;49.456;8.164;2023-02-28T04:24:26;5.60;;;2.90;;
16775;SDS011;8505;49.456;8.164;2023-02-28T04:26:55;4.72;;;2.92;;
16775;SDS011;8505;49.456;8.164;2023-02-28T04:29:24;4.45;;;2.75;;
16775;SDS011;8505;49.456;8.164;2023-02-28T04:31:53;3.92;;;2.70;;
16775;SDS011;8505;49.456;8.164;2023-02-28T04:34:24;5.68;;;3.03;;
16775;SDS011;8505;49.456;8.164;2023-02-28T04:36:52;4.55;;;2.92;;
16775;SDS011;8505;49.456;8.164;2023-02-28T04:39:38;4.32;;;2.90;;
16775;SDS011;8505;49.456;8.164;2023-02-28T04:42:07;5.20;;;2.83;;
16775;SDS011;8505;49.456;8.164;2023-02-28T04:44:35;4.80;;;2.83;;
16775;SDS011;8505;49.456;8.164;2023-02-28T04:47:02;6.38;;;3.20;;
16775;SDS011;8505;49.456;8.164;2023-02-28T04:49:30;5.60;;;3.28;;
16775;SDS011;8505;49.456;8.164;2023-02-28T04:51:58;6.68;;;3.30;;
16775;SDS011;8505;49.456;8.164;2023-02-28T04:54:26;4.78;;;3.10;;
16775;SDS011;8505;49.456;8.164;2023-02-28T04:56:55;6.10;;;3.30;;
16775;SDS011;8505;49.456;8.164;2023-02-28T04:59:23;6.60;;;3.20;;
16775;SDS011;8505;49.456;8.164;2023-02-28T05:01:51;5.68;;;3.47;;
16775;SDS011;8505;49.456;8.164;2023-02-28T05:04:19;4.78;;;3.30;;
16775;SDS011;8505;49.456;8.164;2023-02-28T05:06:46;5.50;;;3.40;;
16775;SDS011;8505;49.456;8.164;2023-02-28T05:09:14;6.00;;;3.58;;
16775;SDS011;8505;49.456;8.164;2023-02-28T05:11:42;7.97;;;3.80;;
16775;SDS011;8505;49.456;8.164;2023-02-28T05:14:12;6.32;;;3.70;;
16775;SDS011;8505;49.456;8.164;2023-02-28T05:16:41;5.43;;;3.50;;
16775;SDS011;8505;49.456;8.164;2023-02-28T05:19:09;5.88;;;3.95;;
16775;SDS011;8505;49.456;8.164;2023-02-28T05:21:37;6.82;;;4.03;;
16775;SDS011;8505;49.456;8.164;2023-02-28T05:24:09;6.57;;;3.77;;
16775;SDS011;8505;49.456;8.164;2023-02-28T05:26:39;7.47;;;4.30;;
16775;SDS011;8505;49.456;8.164;2023-02-28T05:29:08;5.73;;;3.77;;
16775;SDS011;8505;49.456;8.164;2023-02-28T05:31:37;7.00;;;4.22;;
16775;SDS011;8505;49.456;8.164;2023-02-28T05:34:05;6.18;;;4.00;;
16775;SDS011;8505;49.456;8.164;2023-02-28T05:36:33;7.47;;;4.18;;
16775;SDS011;8505;49.456;8.164;2023-02-28T05:39:04;6.07;;;4.00;;
16775;SDS011;8505;49.456;8.164;2023-02-28T05:41:32;6.53;;;4.18;;
16775;SDS011;8505;49.456;8.164;2023-02-28T05:44:00;5.90;;;4.03;;
16775;SDS011;8505;49.456;8.164;2023-02-28T05:46:28;7.95;;;4.60;;
16775;SDS011;8505;49.456;8.164;2023-02-28T05:48:57;7.35;;;4.60;;
16775;SDS011;8505;49.456;8.164;2023-02-28T05:51:26;9.75;;;5.18;;
16775;SDS011;8505;49.456;8.164;2023-02-28T05:53:57;9.40;;;5.80;;
16775;SDS011;8505;49.456;8.164;2023-02-28T05:56:26;9.10;;;5.40;;
16775;SDS011;8505;49.456;8.164;2023-02-28T05:58:54;6.70;;;4.15;;
16775;SDS011;8505;49.456;8.164;2023-02-28T06:01:23;7.07;;;4.47;;
16775;SDS011;8505;49.456;8.164;2023-02-28T06:04:00;8.23;;;4.97;;
16775;SDS011;8505;49.456;8.164;2023-02-28T06:06:29;6.78;;;4.80;;
16775;SDS011;8505;49.456;8.164;2023-02-28T06:08:57;9.77;;;5.95;;
16775;SDS011;8505;49.456;8.164;2023-02-28T06:11:24;7.30;;;4.80;;
16775;SDS011;8505;49.456;8.164;2023-02-28T06:13:54;8.88;;;4.88;;
16775;SDS011;8505;49.456;8.164;2023-02-28T06:16:23;17.13;;;9.05;;
16775;SDS011;8505;49.456;8.164;2023-02-28T06:18:51;9.70;;;6.15;;
16775;SDS011;8505;49.456;8.164;2023-02-28T06:21:23;9.40;;;6.00;;
16775;SDS011;8505;49.456;8.164;2023-02-28T06:23:51;8.57;;;5.72;;
16775;SDS011;8505;49.456;8.164;2023-02-28T06:26:19;8.90;;;5.68;;
16775;SDS011;8505;49.456;8.164;2023-02-28T06:28:47;9.82;;;6.00;;
16775;SDS011;8505;49.456;8.164;2023-02-28T06:31:16;8.00;;;4.68;;
16775;SDS011;8505;49.456;8.164;2023-02-28T06:33:45;8.45;;;4.70;;
16775;SDS011;8505;49.456;8.164;2023-02-28T06:36:13;7.43;;;4.50;;
16775;SDS011;8505;49.456;8.164;2023-02-28T06:38:43;6.30;;;4.20;;
16775;SDS011;8505;49.456;8.164;2023-02-28T06:41:11;9.18;;;4.47;;
16775;SDS011;8505;49.456;8.164;2023-02-28T06:43:39;7.20;;;4.40;;
16775;SDS011;8505;49.456;8.164;2023-02-28T06:46:09;7.18;;;4.47;;
16775;SDS011;8505;49.456;8.164;2023-02-28T06:48:39;8.05;;;4.68;;
16775;SDS011;8505;49.456;8.164;2023-02-28T06:51:09;7.87;;;4.70;;
16775;SDS011;8505;49.456;8.164;2023-02-28T06:53:39;12.68;;;6.38;;
16775;SDS011;8505;49.456;8.164;2023-02-28T06:56:09;9.27;;;5.10;;
16775;SDS011;8505;49.456;8.164;2023-02-28T06:58:38;16.08;;;8.20;;
16775;SDS011;8505;49.456;8.164;2023-02-28T07:01:07;12.68;;;6.68;;
16775;SDS011;8505;49.456;8.164;2023-02-28T07:03:35;9.18;;;5.28;;
16775;SDS011;8505;49.456;8.164;2023-02-28T07:06:04;9.52;;;4.70;;
16775;SDS011;8505;49.456;8.164;2023-02-28T07:08:33;15.27;;;4.70;;
16775;SDS011;8505;49.456;8.164;2023-02-28T07:11:01;12.20;;;4.70;;
16775;SDS011;8505;49.456;8.164;2023-02-28T07:13:31;6.53;;;4.43;;
16775;SDS011;8505;49.456;8.164;2023-02-28T07:16:00;8.73;;;4.85;;
16775;SDS011;8505;49.456;8.164;2023-02-28T07:18:29;7.40;;;4.00;;
16775;SDS011;8505;49.456;8.164;2023-02-28T07:20:57;6.53;;;4.10;;
16775;SDS011;8505;49.456;8.164;2023-02-28T07:23:25;6.68;;;4.20;;
16775;SDS011;8505;49.456;8.164;2023-02-28T07:25:52;7.18;;;4.32;;
16775;SDS011;8505;49.456;8.164;2023-02-28T07:28:20;9.15;;;4.45;;
16775;SDS011;8505;49.456;8.164;2023-02-28T07:30:49;7.72;;;4.53;;
16775;SDS011;8505;49.456;8.164;2023-02-28T07:33:17;7.65;;;4.63;;
16775;SDS011;8505;49.456;8.164;2023-02-28T07:35:45;8.82;;;5.07;;
16775;SDS011;8505;49.456;8.164;2023-02-28T07:38:13;8.07;;;5.18;;
16775;SDS011;8505;49.456;8.164;2023-02-28T07:40:40;8.77;;;4.90;;
16775;SDS011;8505;49.456;8.164;2023-02-28T07:43:08;6.00;;;4.20;;
16775;SDS011;8505;49.456;8.164;2023-02-28T07:45:36;8.55;;;4.35;;
16775;SDS011;8505;49.456;8.164;2023-02-28T07:48:05;7.97;;;4.72;;
16775;SDS011;8505;49.456;8.164;2023-02-28T07:50:36;9.10;;;4.20;;
16775;SDS011;8505;49.456;8.164;2023-02-28T07:53:04;7.47;;;3.92;;
16775;SDS011;8505;49.456;8.164;2023-02-28T07:55:32;7.70;;;4.00;;
16775;SDS011;8505;49.456;8.164;2023-02-28T07:57:59;6.57;;;4.00;;
16775;SDS011;8505;49.456;8.164;2023-02-28T08:00:27;6.00;;;4.07;;
16775;SDS011;8505;49.456;8.164;2023-02-28T08:02:57;7.53;;;3.97;;
16775;SDS011;8505;49.456;8.164;2023-02-28T08:05:26;7.70;;;4.00;;
16775;SDS011;8505;49.456;8.164;2023-02-28T08:07:54;6.90;;;4.20;;
16775;SDS011;8505;49.456;8.164;2023-02-28T08:10:22;7.78;;;4.20;;
16775;SDS011;8505;49.456;8.164;2023-02-28T08:12:50;8.60;;;4.40;;
16775;SDS011;8505;49.456;8.164;2023-02-28T08:15:17;7.03;;;4.03;;
16775;SDS011;8505;49.456;8.164;2023-02-28T08:17:45;7.22;;;4.10;;
16775;SDS011;8505;49.456;8.164;2023-02-28T08:20:13;5.93;;;3.92;;
16775;SDS011;8505;49.456;8.164;2023-02-28T08:22:42;7.70;;;4.40;;
16775;SDS011;8505;49.456;8.164;2023-02-28T08:25:11;7.00;;;3.78;;
16775;SDS011;8505;49.456;8.164;2023-02-28T08:27:39;8.13;;;4.10;;
16775;SDS011;8505;49.456;8.164;2023-02-28T08:30:07;8.40;;;3.95;;
16775;SDS011;8505;49.456;8.164;2023-02-28T08:32:38;7.77;;;4.50;;
16775;SDS011;8505;49.456;8.164;2023-02-28T08:35:06;7.28;;;4.20;;
16775;SDS011;8505;49.456;8.164;2023-02-28T08:37:35;6.70;;;4.20;;
16775;SDS011;8505;49.456;8.164;2023-02-28T08:40:05;5.78;;;3.97;;
16775;SDS011;8505;49.456;8.164;2023-02-28T08:42:34;6.87;;;4.10;;
16775;SDS011;8505;49.456;8.164;2023-02-28T08:45:02;6.18;;;3.90;;
16775;SDS011;8505;49.456;8.164;2023-02-28T08:47:31;9.93;;;4.10;;
16775;SDS011;8505;49.456;8.164;2023-02-28T08:49:59;7.53;;;3.97;;
16775;SDS011;8505;49.456;8.164;2023-02-28T08:52:26;7.60;;;4.20;;
16775;SDS011;8505;49.456;8.164;2023-02-28T08:54:54;7.82;;;4.32;;
16775;SDS011;8505;49.456;8.164;2023-02-28T08:57:23;7.75;;;4.30;;
16775;SDS011;8505;49.456;8.164;2023-02-28T08:59:52;8.13;;;4.60;;
16775;SDS011;8505;49.456;8.164;2023-02-28T09:02:20;8.82;;;4.20;;
16775;SDS011;8505;49.456;8.164;2023-02-28T09:04:47;9.65;;;4.90;;
16775;SDS011;8505;49.456;8.164;2023-02-28T09:07:15;18.73;;;10.15;;
16775;SDS011;8505;49.456;8.164;2023-02-28T09:09:43;9.02;;;5.55;;
16775;SDS011;8505;49.456;8.164;2023-02-28T09:12:21;10.87;;;5.50;;
16775;SDS011;8505;49.456;8.164;2023-02-28T09:14:50;13.93;;;7.85;;
16775;SDS011;8505;49.456;8.164;2023-02-28T09:17:19;11.52;;;6.90;;
16775;SDS011;8505;49.456;8.164;2023-02-28T09:19:47;9.70;;;5.82;;
16775;SDS011;8505;49.456;8.164;2023-02-28T09:22:15;9.15;;;5.97;;
16775;SDS011;8505;49.456;8.164;2023-02-28T09:24:43;9.25;;;5.90;;
16775;SDS011;8505;49.456;8.164;2023-02-28T09:27:11;13.85;;;7.28;;
16775;SDS011;8505;49.456;8.164;2023-02-28T09:29:39;12.57;;;6.75;;
16775;SDS011;8505;49.456;8.164;2023-02-28T09:32:08;10.63;;;6.10;;
16775;SDS011;8505;49.456;8.164;2023-02-28T09:34:36;10.98;;;6.28;;
16775;SDS011;8505;49.456;8.164;2023-02-28T09:37:05;12.07;;;6.80;;
16775;SDS011;8505;49.456;8.164;2023-02-28T09:39:32;14.90;;;8.15;;
16775;SDS011;8505;49.456;8.164;2023-02-28T09:42:00;10.90;;;6.15;;
16775;SDS011;8505;49.456;8.164;2023-02-28T09:44:31;10.52;;;6.55;;
16775;SDS011;8505;49.456;8.164;2023-02-28T09:47:05;8.52;;;5.70;;
16775;SDS011;8505;49.456;8.164;2023-02-28T09:49:40;9.20;;;5.78;;
16775;SDS011;8505;49.456;8.164;2023-02-28T09:52:14;8.00;;;5.53;;
16775;SDS011;8505;49.456;8.164;2023-02-28T09:54:45;9.17;;;5.83;;
16775;SDS011;8505;49.456;8.164;2023-02-28T09:57:15;11.83;;;6.00;;
16775;SDS011;8505;49.456;8.164;2023-02-28T09:59:50;11.90;;;6.68;;
16775;SDS011;8505;49.456;8.164;2023-02-28T10:02:38;9.85;;;5.90;;
16775;SDS011;8505;49.456;8.164;2023-02-28T10:05:16;11.02;;;6.32;;
16775;SDS011;8505;49.456;8.164;2023-02-28T10:07:50;9.85;;;6.05;;
16775;SDS011;8505;49.456;8.164;2023-02-28T10:10:28;8.37;;;5.50;;
16775;SDS011;8505;49.456;8.164;2023-02-28T10:13:00;9.40;;;5.50;;
16775;SDS011;8505;49.456;8.164;2023-02-28T10:15:32;8.77;;;5.50;;
16775;SDS011;8505;49.456;8.164;2023-02-28T10:18:04;8.95;;;5.88;;
16775;SDS011;8505;49.456;8.164;2023-02-28T10:20:39;9.43;;;5.82;;
16775;SDS011;8505;49.456;8.164;2023-02-28T10:23:11;9.65;;;6.00;;
16775;SDS011;8505;49.456;8.164;2023-02-28T10:25:44;10.85;;;6.95;;
16775;SDS011;8505;49.456;8.164;2023-02-28T10:28:17;10.63;;;6.30;;
16775;SDS011;8505;49.456;8.164;2023-02-28T10:30:46;15.57;;;7.93;;
16775;SDS011;8505;49.456;8.164;2023-02-28T10:33:21;13.45;;;6.47;;
16775;SDS011;8505;49.456;8.164;2023-02-28T10:35:51;16.75;;;6.70;;
16775;SDS011;8505;49.456;8.164;2023-02-28T10:38:21;16.92;;;10.70;;
16775;SDS011;8505;49.456;8.164;2023-02-28T10:40:50;8.98;;;6.35;;
16775;SDS011;8505;49.456;8.164;2023-02-28T10:43:19;11.18;;;6.60;;
16775;SDS011;8505;49.456;8.164;2023-02-28T10:45:55;9.25;;;6.68;;
16775;SDS011;8505;49.456;8.164;2023-02-28T10:48:37;9.63;;;6.45;;
16775;SDS011;8505;49.456;8.164;2023-02-28T10:51:07;10.10;;;6.73;;
16775;SDS011;8505;49.456;8.164;2023-02-28T10:53:37;10.90;;;7.57;;
16775;SDS011;8505;49.456;8.164;2023-02-28T10:56:26;13.63;;;7.78;;
16775;SDS011;8505;49.456;8.164;2023-02-28T10:58:55;14.60;;;7.00;;
16775;SDS011;8505;49.456;8.164;2023-02-28T11:01:26;11.90;;;6.78;;
16775;SDS011;8505;49.456;8.164;2023-02-28T11:04:11;10.52;;;6.30;;
16775;SDS011;8505;49.456;8.164;2023-02-28T11:06:48;10.65;;;6.32;;
16775;SDS011;8505;49.456;8.164;2023-02-28T11:09:26;13.55;;;8.73;;
16775;SDS011;8505;49.456;8.164;2023-02-28T11:11:57;9.50;;;6.35;;
16775;SDS011;8505;49.456;8.164;2023-02-28T11:14:27;10.15;;;6.80;;
16775;SDS011;8505;49.456;8.164;2023-02-28T11:16:58;11.75;;;6.95;;
16775;SDS011;8505;49.456;8.164;2023-02-28T11:19:40;10.07;;;6.70;;
16775;SDS011;8505;49.456;8.164;2023-02-28T11:22:15;8.93;;;6.30;;
16775;SDS011;8505;49.456;8.164;2023-02-28T11:24:46;10.00;;;6.50;;
16775;SDS011;8505;49.456;8.164;2023-02-28T11:27:42;9.00;;;6.25;;
16775;SDS011;8505;49.456;8.164;2023-02-28T11:30:23;9.15;;;6.32;;
16775;SDS011;8505;49.456;8.164;2023-02-28T11:32:55;9.80;;;6.85;;
16775;SDS011;8505;49.456;8.164;2023-02-28T11:35:26;11.30;;;6.35;;
16775;SDS011;8505;49.456;8.164;2023-02-28T11:37:57;9.48;;;6.32;;
16775;SDS011;8505;49.456;8.164;2023-02-28T11:40:29;9.85;;;6.78;;
16775;SDS011;8505;49.456;8.164;2023-02-28T11:43:03;11.60;;;7.00;;
16775;SDS011;8505;49.456;8.164;2023-02-28T11:45:47;12.13;;;6.85;;
16775;SDS011;8505;49.456;8.164;2023-02-28T11:48:25;12.02;;;7.13;;
16775;SDS011;8505;49.456;8.164;2023-02-28T11:51:02;11.30;;;6.90;;
16775;SDS011;8505;49.456;8.164;2023-02-28T11:53:50;14.30;;;7.07;;
16775;SDS011;8505;49.456;8.164;2023-02-28T11:56:36;23.77;;;7.50;;
16775;SDS011;8505;49.456;8.164;2023-02-28T11:59:27;11.77;;;7.50;;
16775;SDS011;8505;49.456;8.164;2023-02-28T12:02:14;12.18;;;7.40;;
16775;SDS011;8505;49.456;8.164;2023-02-28T12:04:52;11.10;;;7.75;;
16775;SDS011;8505;49.456;8.164;2023-02-28T12:07:37;11.37;;;7.33;;
16775;SDS011;8505;49.456;8.164;2023-02-28T12:10:18;11.80;;;8.23;;
16775;SDS011;8505;49.456;8.164;2023-02-28T12:12:53;19.77;;;10.73;;
16775;SDS011;8505;49.456;8.164;2023-02-28T12:18:30;20.40;;;8.32;;
16775;SDS011;8505;49.456;8.164;2023-02-28T12:21:14;10.93;;;6.80;;
16775;SDS011;8505;49.456;8.164;2023-02-28T12:23:58;10.48;;;6.82;;
16775;SDS011;8505;49.456;8.164;2023-02-28T12:26:38;11.02;;;8.13;;
16775;SDS011;8505;49.456;8.164;2023-02-28T12:29:10;12.20;;;7.30;;
16775;SDS011;8505;49.456;8.164;2023-02-28T12:31:46;9.45;;;6.65;;
16775;SDS011;8505;49.456;8.164;2023-02-28T12:34:20;11.65;;;7.25;;
16775;SDS011;8505;49.456;8.164;2023-02-28T12:36:50;10.63;;;6.68;;
16775;SDS011;8505;49.456;8.164;2023-02-28T12:39:23;13.90;;;6.85;;
16775;SDS011;8505;49.456;8.164;2023-02-28T12:41:57;10.95;;;7.25;;
16775;SDS011;8505;49.456;8.164;2023-02-28T12:44:30;11.45;;;7.22;;
16775;SDS011;8505;49.456;8.164;2023-02-28T12:47:03;11.68;;;7.25;;
16775;SDS011;8505;49.456;8.164;2023-02-28T12:49:33;11.55;;;7.32;;
16775;SDS011;8505;49.456;8.164;2023-02-28T12:52:04;11.90;;;6.82;;
16775;SDS011;8505;49.456;8.164;2023-02-28T12:54:35;10.02;;;6.65;;
16775;SDS011;8505;49.456;8.164;2023-02-28T12:57:08;12.63;;;7.65;;
16775;SDS011;8505;49.456;8.164;2023-02-28T12:59:44;10.43;;;6.90;;
16775;SDS011;8505;49.456;8.164;2023-02-28T13:02:33;11.52;;;7.20;;
16775;SDS011;8505;49.456;8.164;2023-02-28T13:05:45;13.10;;;7.55;;
16775;SDS011;8505;49.456;8.164;2023-02-28T13:11:28;14.18;;;7.10;;
16775;SDS011;8505;49.456;8.164;2023-02-28T13:13:58;11.85;;;7.93;;
16775;SDS011;8505;49.456;8.164;2023-02-28T13:16:27;10.83;;;7.20;;
16775;SDS011;8505;49.456;8.164;2023-02-28T13:19:16;12.50;;;7.50;;
16775;SDS011;8505;49.456;8.164;2023-02-28T13:21:46;12.20;;;7.60;;
16775;SDS011;8505;49.456;8.164;2023-02-28T13:27:17;10.47;;;7.20;;
16775;SDS011;8505;49.456;8.164;2023-02-28T13:29:51;9.95;;;7.05;;
16775;SDS011;8505;49.456;8.164;2023-02-28T13:32:28;10.27;;;7.18;;
16775;SDS011;8505;49.456;8.164;2023-02-28T13:35:13;15.63;;;9.57;;
16775;SDS011;8505;49.456;8.164;2023-02-28T13:38:09;11.27;;;7.87;;
16775;SDS011;8505;49.456;8.164;2023-02-28T13:40:44;10.65;;;7.00;;
16775;SDS011;8505;49.456;8.164;2023-02-28T13:43:13;10.85;;;7.28;;
16775;SDS011;8505;49.456;8.164;2023-02-28T13:46:10;11.87;;;7.30;;
16775;SDS011;8505;49.456;8.164;2023-02-28T13:48:41;10.57;;;7.18;;
16775;SDS011;8505;49.456;8.164;2023-02-28T13:54:16;11.35;;;7.00;;
16775;SDS011;8505;49.456;8.164;2023-02-28T13:56:53;11.75;;;8.70;;
16775;SDS011;8505;49.456;8.164;2023-02-28T13:59:35;12.73;;;7.38;;
16775;SDS011;8505;49.456;8.164;2023-02-28T14:02:25;10.50;;;6.80;;
16775;SDS011;8505;49.456;8.164;2023-02-28T14:05:06;11.60;;;7.07;;
16775;SDS011;8505;49.456;8.164;2023-02-28T14:07:43;9.85;;;7.03;;
16775;SDS011;8505;49.456;8.164;2023-02-28T14:10:24;9.95;;;6.90;;
16775;SDS011;8505;49.456;8.164;2023-02-28T14:12:57;10.82;;;7.20;;
16775;SDS011;8505;49.456;8.164;2023-02-28T14:15:36;10.40;;;7.00;;
16775;SDS011;8505;49.456;8.164;2023-02-28T14:18:14;10.25;;;6.93;;
16775;SDS011;8505;49.456;8.164;2023-02-28T14:20:45;11.02;;;7.65;;
16775;SDS011;8505;49.456;8.164;2023-02-28T14:23:19;13.40;;;7.40;;
16775;SDS011;8505;49.456;8.164;2023-02-28T14:26:01;11.90;;;7.00;;
16775;SDS011;8505;49.456;8.164;2023-02-28T14:28:43;12.77;;;7.45;;
16775;SDS011;8505;49.456;8.164;2023-02-28T14:31:23;12.63;;;7.55;;
16775;SDS011;8505;49.456;8.164;2023-02-28T14:34:04;14.43;;;8.80;;
16775;SDS011;8505;49.456;8.164;2023-02-28T14:36:44;14.07;;;8.40;;
16775;SDS011;8505;49.456;8.164;2023-02-28T14:39:13;10.82;;;7.28;;
16775;SDS011;8505;49.456;8.164;2023-02-28T14:41:44;11.80;;;7.80;;
16775;SDS011;8505;49.456;8.164;2023-02-28T14:44:16;10.93;;;7.53;;
16775;SDS011;8505;49.456;8.164;2023-02-28T14:46:48;13.60;;;7.93;;
16775;SDS011;8505;49.456;8.164;2023-02-28T14:49:19;12.38;;;7.60;;
16775;SDS011;8505;49.456;8.164;2023-02-28T14:51:49;13.35;;;8.43;;
16775;SDS011;8505;49.456;8.164;2023-02-28T14:54:28;11.95;;;8.18;;
16775;SDS011;8505;49.456;8.164;2023-02-28T14:56:56;11.88;;;8.07;;
16775;SDS011;8505;49.456;8.164;2023-02-28T14:59:25;10.57;;;7.53;;
16775;SDS011;8505;49.456;8.164;2023-02-28T15:02:19;10.55;;;7.35;;
16775;SDS011;8505;49.456;8.164;2023-02-28T15:04:54;11.75;;;7.97;;
16775;SDS011;8505;49.456;8.164;2023-02-28T15:07:24;13.25;;;7.97;;
16775;SDS011;8505;49.456;8.164;2023-02-28T15:10:11;14.10;;;8.40;;
16775;SDS011;8505;49.456;8.164;2023-02-28T15:12:46;11.68;;;7.85;;
16775;SDS011;8505;49.456;8.164;2023-02-28T15:15:19;12.65;;;7.97;;
16775;SDS011;8505;49.456;8.164;2023-02-28T15:18:06;10.80;;;7.50;;
16775;SDS011;8505;49.456;8.164;2023-02-28T15:20:42;11.48;;;7.28;;
16775;SDS011;8505;49.456;8.164;2023-02-28T15:23:12;9.93;;;6.87;;
16775;SDS011;8505;49.456;8.164;2023-02-28T15:25:40;9.45;;;6.65;;
16775;SDS011;8505;49.456;8.164;2023-02-28T15:28:11;9.73;;;6.80;;
16775;SDS011;8505;49.456;8.164;2023-02-28T15:30:53;11.57;;;6.82;;
16775;SDS011;8505;49.456;8.164;2023-02-28T15:33:26;10.20;;;6.88;;
16775;SDS011;8505;49.456;8.164;2023-02-28T15:36:05;10.88;;;7.07;;
16775;SDS011;8505;49.456;8.164;2023-02-28T15:38:38;11.32;;;7.03;;
16775;SDS011;8505;49.456;8.164;2023-02-28T15:41:20;11.13;;;7.07;;
16775;SDS011;8505;49.456;8.164;2023-02-28T15:46:50;12.27;;;7.65;;